Time;durP1;ratioP1;P1;durP2;ratioP2;P2;SDS_P1;SDS_P2;PMS_P1;PMS_P2;Temp;Humidity;BMP_temperature;BMP_pressure;BME280_temperature;BME280_humidity;BME280_pressure;Samples;Min_cycle;Max_cycle;Signal;HPM_P1;HPM_P2
2021/06/04 00:00:27;;;;;;;12.25;9.02;;;14.30;93.50;;;;;;5028423;28;20034;-68
2021/06/04 00:02:58;;;;;;;13.02;8.75;;;14.40;92.90;;;;;;5028322;28;20521;-68
2021/06/04 00:05:30;;;;;;;14.20;9.45;;;14.50;92.90;;;;;;5028775;28;20025;-68
2021/06/04 00:07:57;;;;;;;15.45;8.65;;;14.70;92.90;;;;;;5027032;28;20064;-68
2021/06/04 00:10:32;;;;;;;13.35;7.93;;;14.90;92.60;;;;;;5027841;28;20749;-67
2021/06/04 00:13:35;;;;;;;13.88;8.05;;;15.00;92.20;;;;;;5027881;28;20049;-68
2021/06/04 00:16:17;;;;;;;7.80;6.97;;;15.20;91.10;;;;;;5029728;28;20036;-68
2021/06/04 00:18:45;;;;;;;12.85;7.18;;;15.50;90.80;;;;;;5027917;28;20021;-68
2021/06/04 00:21:21;;;;;;;11.52;6.63;;;15.60;89.80;;;;;;5031548;28;20022;-68
2021/06/04 00:23:48;;;;;;;8.73;6.22;;;15.80;90.00;;;;;;5027176;28;20065;-67
2021/06/04 00:26:16;;;;;;;9.27;6.40;;;16.00;87.30;;;;;;5028244;28;20393;-68
2021/06/04 00:28:43;;;;;;;8.32;6.28;;;16.30;88.40;;;;;;5028109;28;20017;-68
2021/06/04 00:31:11;;;;;;;5.45;3.38;;;16.70;86.50;;;;;;5024865;28;20071;-66
2021/06/04 00:33:38;;;;;;;0.98;0.77;;;17.10;80.10;;;;;;5027378;28;20033;-66
2021/06/04 00:36:07;;;;;;;0.75;0.52;;;17.40;68.00;;;;;;5028333;28;20035;-68
2021/06/04 00:38:34;;;;;;;1.65;0.70;;;17.60;68.80;;;;;;5027317;28;20087;-66
2021/06/04 00:41:05;;;;;;;1.35;0.80;;;17.70;66.60;;;;;;5028512;28;20405;-70
2021/06/04 00:43:32;;;;;;;2.08;0.90;;;17.90;67.50;;;;;;5024293;28;20025;-68
2021/06/04 00:46:02;;;;;;;4.22;1.35;;;18.00;65.60;;;;;;5027781;28;20030;-66
2021/06/04 00:48:29;;;;;;;2.85;0.73;;;18.20;66.80;;;;;;5026148;28;20030;-66
2021/06/04 00:51:08;;;;;;;4.60;1.48;;;18.30;63.80;;;;;;5027138;28;20024;-64
2021/06/04 00:53:37;;;;;;;4.15;1.38;;;18.30;65.70;;;;;;5025301;28;20336;-66
2021/06/04 00:56:05;;;;;;;2.28;1.88;;;18.40;62.40;;;;;;5027522;28;20100;-67
2021/06/04 00:58:41;;;;;;;4.20;1.95;;;18.40;62.60;;;;;;5026041;28;20022;-66
2021/06/04 01:01:10;;;;;;;1.33;0.75;;;18.40;62.00;;;;;;5026691;28;20021;-68
2021/06/04 01:04:10;;;;;;;0.98;0.88;;;18.60;61.80;;;;;;5029550;28;20009;-67
2021/06/04 01:07:01;;;;;;;2.17;0.80;;;18.80;62.80;;;;;;5015187;28;20037;-67
2021/06/04 01:09:43;;;;;;;1.13;0.70;;;18.90;60.50;;;;;;5027244;28;20025;-68
2021/06/04 01:12:31;;;;;;;0.85;0.45;;;19.10;59.20;;;;;;5027537;28;20025;-67
2021/06/04 01:15:16;;;;;;;0.65;0.65;;;19.00;57.40;;;;;;5026459;28;20678;-67
2021/06/04 01:17:56;;;;;;;0.80;0.60;;;18.90;58.30;;;;;;5026024;28;20051;-67
2021/06/04 01:20:48;;;;;;;4.13;1.13;;;18.90;58.40;;;;;;5026262;28;20095;-67
2021/06/04 01:23:51;;;;;;;1.25;0.80;;;18.90;57.60;;;;;;5021564;28;20132;-66
2021/06/04 01:26:24;;;;;;;1.83;1.27;;;19.10;57.80;;;;;;4995756;28;20029;-67
2021/06/04 01:28:53;;;;;;;;;;;19.20;58.50;;;;;;5027685;28;20397;-68
2021/06/04 01:31:41;;;;;;;1.58;0.63;;;19.20;56.30;;;;;;5026195;28;19913;-67
2021/06/04 01:34:14;;;;;;;1.35;0.60;;;19.10;54.80;;;;;;5026976;28;20029;-67
2021/06/04 01:36:51;;;;;;;3.70;1.00;;;18.90;55.20;;;;;;5027799;28;20030;-67
2021/06/04 01:39:24;;;;;;;2.25;0.70;;;18.90;55.70;;;;;;5025594;28;20096;-68
2021/06/04 01:41:53;;;;;;;1.63;1.13;;;18.90;57.10;;;;;;5024398;28;20129;-66
2021/06/04 01:44:28;;;;;;;3.60;0.85;;;19.00;55.60;;;;;;5027075;28;20090;-67
2021/06/04 01:47:01;;;;;;;1.17;0.80;;;19.10;55.50;;;;;;5025053;28;21097;-68
2021/06/04 01:49:34;;;;;;;2.20;0.80;;;19.30;54.90;;;;;;5028019;28;20512;-67
2021/06/04 01:52:08;;;;;;;1.02;0.68;;;19.40;55.20;;;;;;5029040;28;20378;-68
2021/06/04 01:54:46;;;;;;;1.83;1.23;;;19.50;54.40;;;;;;5023531;28;20025;-68
2021/06/04 01:57:30;;;;;;;1.15;0.80;;;19.80;54.60;;;;;;5024009;28;20688;-65
2021/06/04 01:59:59;;;;;;;2.38;1.10;;;19.90;52.40;;;;;;5026321;28;20024;-65
2021/06/04 02:02:34;;;;;;;2.63;1.10;;;19.90;52.70;;;;;;5026373;28;20053;-67
2021/06/04 02:05:01;;;;;;;2.40;1.20;;;20.00;53.00;;;;;;5023733;28;20505;-67
2021/06/04 02:07:32;;;;;;;6.90;1.10;;;20.20;52.20;;;;;;5026396;28;20026;-67
2021/06/04 02:10:01;;;;;;;2.33;0.98;;;20.20;52.00;;;;;;5027909;28;20025;-70
2021/06/04 02:12:29;;;;;;;1.67;1.10;;;20.00;53.40;;;;;;5027176;28;20037;-68
2021/06/04 02:15:12;;;;;;;1.42;1.00;;;19.80;52.40;;;;;;5027072;28;20036;-67
2021/06/04 02:17:55;;;;;;;1.52;1.00;;;19.50;52.20;;;;;;5024300;28;20029;-68
2021/06/04 02:20:32;;;;;;;2.25;1.00;;;19.40;54.90;;;;;;5025676;28;20026;-67
2021/06/04 02:23:13;;;;;;;5.07;1.70;;;19.30;54.40;;;;;;5034049;28;20413;-69
2021/06/04 02:25:49;;;;;;;1.52;1.13;;;19.20;54.70;;;;;;5034164;28;20378;-68
2021/06/04 02:28:22;;;;;;;3.65;1.83;;;19.30;54.20;;;;;;5034067;28;20091;-67
2021/06/04 02:30:57;;;;;;;;;;;19.60;55.00;;;;;;5034456;28;20032;-69
2021/06/04 02:33:35;;;;;;;5.10;1.80;;;20.00;54.10;;;;;;5040952;28;20019;-68
2021/06/04 02:36:19;;;;;;;2.28;0.73;;;20.10;52.20;;;;;;5034408;28;20080;-69
2021/06/04 02:38:53;;;;;;;1.90;1.15;;;20.10;52.00;;;;;;5035828;28;20420;-68
2021/06/04 02:41:22;;;;;;;3.50;1.25;;;20.00;53.70;;;;;;5035072;28;20017;-68
2021/06/04 02:43:54;;;;;;;1.17;0.98;;;20.10;53.20;;;;;;5037324;28;20076;-68
2021/06/04 02:46:23;;;;;;;4.30;1.17;;;19.90;54.10;;;;;;5020206;28;20358;-68
2021/06/04 02:48:51;;;;;;;1.40;0.98;;;19.60;53.00;;;;;;5037679;28;20021;-68
2021/06/04 02:51:54;;;;;;;4.88;1.27;;;19.30;54.20;;;;;;5037303;28;20035;-67
2021/06/04 02:54:31;;;;;;;4.43;1.40;;;19.10;53.50;;;;;;5030523;28;20029;-68
2021/06/04 02:57:07;;;;;;;6.65;1.88;;;18.90;54.60;;;;;;5035382;28;20532;-66
2021/06/04 02:59:41;;;;;;;3.35;2.10;;;18.80;54.40;;;;;;5041463;28;20096;-68
2021/06/04 03:02:16;;;;;;;8.73;3.67;;;18.60;54.40;;;;;;4344138;28;10000648;-69
2021/06/04 03:04:47;;;;;;;2.38;1.00;;;18.50;54.70;;;;;;5039702;28;20021;-69
2021/06/04 03:07:29;;;;;;;4.45;1.02;;;18.50;55.10;;;;;;5048719;28;20029;-71
2021/06/04 03:09:58;;;;;;;1.77;0.98;;;18.50;55.00;;;;;;5035123;28;20030;-72
2021/06/04 03:12:39;;;;;;;0.95;0.80;;;18.50;55.40;;;;;;5040292;28;20051;-65
2021/06/04 03:15:26;;;;;;;2.20;0.98;;;18.60;55.30;;;;;;5042898;28;20021;-68
2021/06/04 03:17:53;;;;;;;4.45;1.40;;;18.60;55.40;;;;;;5033454;28;20031;-66
2021/06/04 03:20:26;;;;;;;3.15;1.80;;;18.60;55.90;;;;;;5038266;28;20024;-67
2021/06/04 03:22:53;;;;;;;3.80;1.38;;;18.70;54.10;;;;;;5037312;28;20037;-68
2021/06/04 03:25:23;;;;;;;1.70;1.08;;;18.60;53.30;;;;;;5036493;28;20036;-65
2021/06/04 03:27:51;;;;;;;3.25;1.20;;;18.40;53.70;;;;;;5046490;28;20032;-68
2021/06/04 03:30:23;;;;;;;2.40;1.02;;;18.30;53.50;;;;;;5043911;28;20028;-68
2021/06/04 03:32:51;;;;;;;3.60;1.10;;;18.30;54.50;;;;;;5047350;28;20021;-66
2021/06/04 03:35:19;;;;;;;3.53;1.10;;;18.40;53.90;;;;;;5048126;28;20616;-70
2021/06/04 03:37:46;;;;;;;2.75;1.30;;;18.30;55.00;;;;;;5042557;28;20041;-68
2021/06/04 03:40:16;;;;;;;3.03;1.13;;;18.40;54.80;;;;;;5047194;28;20036;-68
2021/06/04 03:42:43;;;;;;;5.55;1.10;;;18.40;54.90;;;;;;5038700;28;20041;-70
2021/06/04 03:45:15;;;;;;;1.73;0.98;;;18.30;55.00;;;;;;5027872;28;20920;-68
2021/06/04 03:47:42;;;;;;;3.47;1.27;;;18.30;56.10;;;;;;5043657;28;20048;-68
2021/06/04 03:50:11;;;;;;;2.53;1.20;;;18.20;55.80;;;;;;5031875;28;20075;-72
2021/06/04 03:52:40;;;;;;;4.22;1.30;;;18.20;54.80;;;;;;5039665;28;20028;-74
2021/06/04 03:55:08;;;;;;;2.08;1.10;;;18.20;55.20;;;;;;5037623;28;20037;-69
2021/06/04 03:57:38;;;;;;;1.70;1.25;;;18.20;55.30;;;;;;5046731;28;20133;-69
2021/06/04 04:00:32;;;;;;;1.35;1.23;;;18.10;54.20;;;;;;5037047;28;20025;-70
2021/06/04 04:02:59;;;;;;;2.72;1.30;;;18.10;56.30;;;;;;5037319;28;20044;-72
2021/06/04 04:05:28;;;;;;;0.93;0.93;;;18.00;56.00;;;;;;5037190;28;20112;-69
2021/06/04 04:07:55;;;;;;;3.78;1.27;;;18.10;55.10;;;;;;5021417;28;20021;-69
2021/06/04 04:10:26;;;;;;;3.42;1.25;;;18.10;56.40;;;;;;5047160;28;20025;-68
2021/06/04 04:12:53;;;;;;;1.63;1.42;;;18.10;55.70;;;;;;5025933;28;20115;-67
2021/06/04 04:15:24;;;;;;;5.00;1.42;;;18.10;55.70;;;;;;5047311;28;20112;-69
2021/06/04 04:17:54;;;;;;;3.90;1.67;;;18.10;54.30;;;;;;5046411;28;20025;-68
2021/06/04 04:20:42;;;;;;;2.58;1.40;;;18.00;55.30;;;;;;5046708;28;20043;-68
2021/06/04 04:23:11;;;;;;;5.32;1.33;;;18.00;55.20;;;;;;5049699;28;20032;-65
2021/06/04 04:25:42;;;;;;;5.40;1.55;;;18.00;54.60;;;;;;5046586;28;20060;-68
2021/06/04 04:28:11;;;;;;;3.00;1.30;;;18.00;54.30;;;;;;5046913;28;20033;-68
2021/06/04 04:30:38;;;;;;;4.68;1.40;;;17.90;54.60;;;;;;5039791;28;20036;-66
2021/06/04 04:33:07;;;;;;;5.40;1.40;;;17.80;54.60;;;;;;5046742;28;20021;-69
2021/06/04 04:35:36;;;;;;;4.47;1.38;;;17.80;54.50;;;;;;5043894;28;20032;-69
2021/06/04 04:38:05;;;;;;;1.77;1.30;;;17.80;55.00;;;;;;5046178;28;20124;-66
2021/06/04 04:40:36;;;;;;;5.03;1.45;;;17.90;54.80;;;;;;5046925;28;20025;-69
2021/06/04 04:43:04;;;;;;;1.92;1.48;;;18.00;54.50;;;;;;5046966;28;20029;-67
2021/06/04 04:45:32;;;;;;;5.05;1.13;;;18.00;55.60;;;;;;5046052;28;20503;-69
2021/06/04 04:48:00;;;;;;;1.48;1.10;;;17.90;54.60;;;;;;5046406;28;20063;-69
2021/06/04 04:50:28;;;;;;;4.65;1.20;;;17.80;54.50;;;;;;5046539;28;20124;-67
2021/06/04 04:52:56;;;;;;;1.85;1.25;;;17.70;55.00;;;;;;5028463;28;20045;-67
2021/06/04 04:55:26;;;;;;;4.32;1.35;;;17.70;55.70;;;;;;5047107;28;20059;-68
2021/06/04 04:57:53;;;;;;;2.92;1.55;;;17.60;55.60;;;;;;5039957;28;20025;-67
2021/06/04 05:00:24;;;;;;;5.50;1.55;;;17.50;55.70;;;;;;5046757;28;20032;-67
2021/06/04 05:02:52;;;;;;;3.13;1.35;;;17.40;56.10;;;;;;5045991;28;20017;-69
2021/06/04 05:05:22;;;;;;;3.78;2.13;;;17.30;56.40;;;;;;5046544;28;20021;-69
2021/06/04 05:07:49;;;;;;;3.40;1.50;;;17.30;56.40;;;;;;5045763;28;20063;-67
2021/06/04 05:10:17;;;;;;;3.35;1.50;;;17.30;56.80;;;;;;5046087;28;21194;-66
2021/06/04 05:12:44;;;;;;;2.35;1.20;;;17.30;56.80;;;;;;5047154;28;20029;-67
2021/06/04 05:15:14;;;;;;;3.38;1.40;;;17.20;57.30;;;;;;5053785;28;20060;-69
2021/06/04 05:17:42;;;;;;;3.33;1.40;;;17.20;56.90;;;;;;5045852;28;20036;-69
2021/06/04 05:20:11;;;;;;;3.15;1.60;;;17.10;56.60;;;;;;5046197;28;20056;-64
2021/06/04 05:22:39;;;;;;;5.38;1.40;;;17.10;57.10;;;;;;5010586;28;20513;-64
2021/06/04 05:25:08;;;;;;;4.75;2.03;;;17.10;57.30;;;;;;5034885;28;20160;-69
2021/06/04 05:27:35;;;;;;;4.32;1.80;;;17.10;56.40;;;;;;5046510;28;20060;-65
2021/06/04 05:30:04;;;;;;;6.25;1.95;;;17.20;56.50;;;;;;5044286;28;20029;-64
2021/06/04 05:32:31;;;;;;;4.55;1.80;;;17.20;56.50;;;;;;5049684;28;20060;-69
2021/06/04 05:34:58;;;;;;;5.25;1.60;;;17.40;55.90;;;;;;5044861;28;20401;-72
2021/06/04 05:37:25;;;;;;;1.98;1.25;;;17.50;55.90;;;;;;5047709;28;20045;-65
2021/06/04 05:39:52;;;;;;;4.18;1.45;;;17.60;56.10;;;;;;5049865;28;20082;-70
2021/06/04 05:42:19;;;;;;;4.28;1.30;;;17.70;55.70;;;;;;5049986;28;20056;-68
2021/06/04 05:44:47;;;;;;;3.15;1.38;;;17.70;56.00;;;;;;5050836;28;20029;-62
2021/06/04 05:47:14;;;;;;;2.65;1.10;;;17.60;57.20;;;;;;5046782;28;20029;-65
2021/06/04 05:49:42;;;;;;;1.65;1.17;;;17.60;56.20;;;;;;5039001;28;20036;-69
2021/06/04 05:52:15;;;;;;;1.25;1.10;;;17.60;56.70;;;;;;5048236;28;20029;-70
2021/06/04 05:54:45;;;;;;;1.83;1.08;;;17.40;56.40;;;;;;5044833;28;20512;-65
2021/06/04 05:57:14;;;;;;;1.67;1.20;;;17.40;56.70;;;;;;5044936;28;20037;-64
2021/06/04 05:59:41;;;;;;;1.17;1.02;;;17.30;56.80;;;;;;5045024;28;20029;-68
2021/06/04 06:02:09;;;;;;;3.22;1.42;;;17.20;57.40;;;;;;5044374;28;20028;-73
2021/06/04 06:04:37;;;;;;;1.02;0.93;;;17.10;56.90;;;;;;5045092;28;20021;-64
2021/06/04 06:07:04;;;;;;;1.50;1.13;;;17.00;58.00;;;;;;5044990;28;20039;-67
2021/06/04 06:09:31;;;;;;;2.25;1.00;;;16.80;58.20;;;;;;5051536;28;20621;-66
2021/06/04 06:11:58;;;;;;;1.20;1.08;;;16.70;57.70;;;;;;5048360;28;20098;-70
2021/06/04 06:14:25;;;;;;;2.33;1.20;;;16.60;58.20;;;;;;5045006;28;20060;-65
2021/06/04 06:16:52;;;;;;;2.95;1.40;;;16.60;58.80;;;;;;5048933;28;20049;-68
2021/06/04 06:19:20;;;;;;;1.85;1.30;;;16.50;59.40;;;;;;5044834;28;20531;-64
2021/06/04 06:21:51;;;;;;;2.92;1.35;;;16.50;59.70;;;;;;5027004;28;20485;-65
2021/06/04 06:24:19;;;;;;;1.40;1.23;;;16.50;59.70;;;;;;5037898;28;20635;-67
2021/06/04 06:26:47;;;;;;;2.17;1.33;;;16.30;60.60;;;;;;5044370;28;20631;-68
2021/06/04 06:29:16;;;;;;;4.05;3.10;;;16.20;60.10;;;;;;5044134;28;20060;-64
2021/06/04 06:31:45;;;;;;;3.55;2.75;;;16.20;60.20;;;;;;5044180;28;20029;-67
2021/06/04 06:34:12;;;;;;;9.52;3.88;;;16.00;61.40;;;;;;5044663;28;20819;-67
2021/06/04 06:36:42;;;;;;;2.80;2.05;;;16.00;61.60;;;;;;5043638;28;20079;-66
2021/06/04 06:39:16;;;;;;;1.48;1.20;;;16.00;61.40;;;;;;5032026;28;20017;-68
2021/06/04 06:41:46;;;;;;;1.80;1.27;;;15.90;62.30;;;;;;5046186;28;20021;-66
2021/06/04 06:44:14;;;;;;;2.35;1.60;;;15.80;61.60;;;;;;5051519;28;20323;-66
2021/06/04 06:46:42;;;;;;;6.00;1.55;;;15.80;61.50;;;;;;5050610;28;20096;-70
2021/06/04 06:49:10;;;;;;;2.97;1.10;;;15.90;60.60;;;;;;5051745;28;20887;-64
2021/06/04 06:51:38;;;;;;;6.75;1.70;;;15.80;60.60;;;;;;5054282;28;20017;-70
2021/06/04 06:54:14;;;;;;;5.10;1.42;;;15.70;60.70;;;;;;5054178;28;20124;-65
2021/06/04 06:56:43;;;;;;;2.88;1.20;;;15.60;61.10;;;;;;5057720;28;20136;-73
2021/06/04 06:59:11;;;;;;;3.42;1.40;;;15.50;61.20;;;;;;5052682;28;20020;-68
2021/06/04 07:01:39;;;;;;;11.40;1.85;;;15.60;61.10;;;;;;5058228;28;20078;-68
2021/06/04 07:04:06;;;;;;;10.30;1.50;;;15.50;61.20;;;;;;5060324;28;20033;-66
2021/06/04 07:06:36;;;;;;;5.38;1.85;;;15.40;61.60;;;;;;5055427;28;20032;-67
2021/06/04 07:09:07;;;;;;;5.35;1.42;;;15.40;61.10;;;;;;5054033;28;20036;-66
2021/06/04 07:11:38;;;;;;;6.05;1.70;;;15.40;61.00;;;;;;5035129;28;20044;-64
2021/06/04 07:14:07;;;;;;;7.60;1.20;;;15.40;61.20;;;;;;5050562;28;20036;-66
2021/06/04 07:16:35;;;;;;;7.97;1.30;;;15.30;61.10;;;;;;5050579;28;20104;-68
2021/06/04 07:19:02;;;;;;;4.78;1.60;;;15.30;61.40;;;;;;5050578;28;20029;-65
2021/06/04 07:21:29;;;;;;;4.85;1.67;;;15.20;61.60;;;;;;5050153;28;20017;-66
2021/06/04 07:23:57;;;;;;;5.28;1.30;;;15.20;62.00;;;;;;5050212;28;20509;-68
2021/06/04 07:26:25;;;;;;;2.83;1.30;;;15.10;62.10;;;;;;5032219;28;20043;-65
2021/06/04 07:28:55;;;;;;;4.88;1.35;;;15.10;61.80;;;;;;5050888;28;20473;-66
2021/06/04 07:31:22;;;;;;;4.03;1.55;;;15.10;61.70;;;;;;5052470;28;20436;-68
2021/06/04 07:33:53;;;;;;;8.45;1.55;;;15.10;61.90;;;;;;5050837;28;20017;-67
2021/06/04 07:36:26;;;;;;;9.20;1.50;;;15.00;62.20;;;;;;5043794;28;20746;-64
2021/06/04 07:38:54;;;;;;;4.43;1.13;;;14.90;62.80;;;;;;5049560;28;20071;-66
2021/06/04 07:41:21;;;;;;;1.45;0.90;;;14.80;63.30;;;;;;5050271;28;20025;-65
2021/06/04 07:43:49;;;;;;;0.93;0.60;;;14.80;63.40;;;;;;5050642;28;20461;-67
2021/06/04 07:46:19;;;;;;;3.25;1.00;;;14.70;63.30;;;;;;5050263;28;20021;-68
2021/06/04 07:48:47;;;;;;;3.30;0.93;;;14.80;62.70;;;;;;5031179;28;20094;-67
2021/06/04 07:51:18;;;;;;;2.13;1.33;;;14.70;63.70;;;;;;5051777;28;20440;-74
2021/06/04 07:53:46;;;;;;;3.42;1.20;;;14.80;62.50;;;;;;5050994;28;20057;-68
2021/06/04 07:56:15;;;;;;;3.85;1.13;;;14.80;63.00;;;;;;5049211;28;20021;-67
2021/06/04 07:58:43;;;;;;;3.08;1.45;;;14.80;62.80;;;;;;5048594;28;20025;-71
2021/06/04 08:01:10;;;;;;;4.43;2.72;;;14.60;65.40;;;;;;5052150;28;20600;-72
2021/06/04 08:03:38;;;;;;;4.45;2.65;;;14.40;65.40;;;;;;5049451;28;20032;-70
2021/06/04 08:06:07;;;;;;;3.38;1.80;;;14.10;67.30;;;;;;5034410;28;20033;-71
2021/06/04 08:08:36;;;;;;;4.50;2.20;;;13.90;67.60;;;;;;5048193;28;20025;-70
2021/06/04 08:11:06;;;;;;;1.80;1.25;;;13.70;68.90;;;;;;5048466;28;20040;-67
2021/06/04 08:13:34;;;;;;;1.45;1.15;;;13.90;67.60;;;;;;5048041;28;20024;-73
2021/06/04 08:16:11;;;;;;;2.17;1.23;;;13.80;68.40;;;;;;5044848;28;20025;-73
2021/06/04 08:18:38;;;;;;;1.10;0.80;;;13.70;69.10;;;;;;5043574;28;20075;-67
2021/06/04 08:21:11;;;;;;;1.45;0.82;;;13.70;68.00;;;;;;5044142;28;20100;-68
2021/06/04 08:23:41;;;;;;;1.65;0.95;;;13.50;68.50;;;;;;5033191;28;20037;-71
2021/06/04 08:26:11;;;;;;;2.25;1.02;;;13.40;70.20;;;;;;5042107;28;20021;-71
2021/06/04 08:28:39;;;;;;;2.65;0.80;;;13.30;69.10;;;;;;5043588;28;20036;-64
2021/06/04 08:31:07;;;;;;;1.00;0.63;;;13.30;69.70;;;;;;5049713;28;20554;-64
2021/06/04 08:33:41;;;;;;;1.95;1.05;;;13.20;69.60;;;;;;5041745;28;20024;-65
2021/06/04 08:36:13;;;;;;;3.60;2.38;;;13.40;69.20;;;;;;5043828;28;20032;-65
2021/06/04 08:38:41;;;;;;;4.82;3.33;;;13.60;68.40;;;;;;5042683;28;20412;-65
2021/06/04 08:41:19;;;;;;;0.82;0.77;;;13.70;68.40;;;;;;5044057;28;20560;-65
2021/06/04 08:44:15;;;;;;;1.08;0.82;;;13.70;68.00;;;;;;5044415;28;20040;-63
2021/06/04 08:46:53;;;;;;;1.73;0.88;;;13.80;67.40;;;;;;5013252;28;20072;-65
2021/06/04 08:49:30;;;;;;;0.55;0.55;;;13.90;66.50;;;;;;5046114;28;20578;-67
2021/06/04 08:52:12;;;;;;;3.13;1.05;;;14.10;66.10;;;;;;5042696;28;20486;-70
2021/06/04 08:54:59;;;;;;;1.27;0.73;;;14.10;65.90;;;;;;5045582;28;20112;-74
2021/06/04 08:58:02;;;;;;;12.65;6.93;;;14.00;66.40;;;;;;5043593;28;20098;-65
2021/06/04 09:00:31;;;;;;;;;;;13.90;66.90;;;;;;5044158;28;20103;-65
2021/06/04 09:03:02;;;;;;;5.97;2.25;;;13.80;67.10;;;;;;5044026;28;19962;-64
2021/06/04 09:05:47;;;;;;;3.30;0.90;;;13.60;68.20;;;;;;5045537;28;20025;-68
2021/06/04 09:08:30;;;;;;;4.43;2.05;;;13.70;67.50;;;;;;5042152;28;20048;-65
2021/06/04 09:11:00;;;;;;;3.15;1.30;;;13.50;69.90;;;;;;5042024;28;20058;-66
2021/06/04 09:13:33;;;;;;;4.00;1.73;;;13.30;70.40;;;;;;5043034;28;20036;-72
2021/06/04 09:16:10;;;;;;;3.22;1.30;;;13.10;70.90;;;;;;5042932;28;20029;-70
2021/06/04 09:18:45;;;;;;;5.90;1.77;;;13.00;70.90;;;;;;5042892;28;20116;-67
2021/06/04 09:23:45;;;;;;;1.10;1.00;;;12.60;73.60;;;;;;5044306;23;20057;-69
2021/06/04 09:26:17;;;;;;;1.15;0.80;;;12.60;72.50;;;;;;5001214;28;20055;-69
2021/06/04 09:28:47;;;;;;;0.80;0.65;;;12.70;72.00;;;;;;5003397;28;20030;-70
2021/06/04 09:31:51;;;;;;;2.05;0.90;;;12.80;71.50;;;;;;5001991;28;20034;-68
2021/06/04 09:34:25;;;;;;;1.48;1.17;;;12.70;72.40;;;;;;4987396;28;20190;-67
2021/06/04 09:36:57;;;;;;;2.05;1.42;;;12.70;72.90;;;;;;5001663;28;20083;-66
2021/06/04 09:39:37;;;;;;;3.33;1.05;;;12.50;74.20;;;;;;5002303;28;20053;-67
2021/06/04 09:42:15;;;;;;;3.50;1.70;;;12.40;74.50;;;;;;5002833;28;20030;-66
2021/06/04 09:45:04;;;;;;;1.77;1.23;;;12.20;75.80;;;;;;4984507;28;20105;-68
2021/06/04 09:47:39;;;;;;;4.93;2.75;;;12.00;76.20;;;;;;5002654;28;20116;-68
2021/06/04 09:50:37;;;;;;;2.00;1.33;;;11.90;76.30;;;;;;5003016;28;20107;-68
2021/06/04 09:53:18;;;;;;;2.88;1.58;;;11.90;77.20;;;;;;5003262;28;20038;-68
2021/06/04 09:55:48;;;;;;;1.67;1.20;;;11.80;77.90;;;;;;5003058;28;21083;-66
2021/06/04 09:58:20;;;;;;;2.42;0.95;;;11.70;78.00;;;;;;5002723;28;20030;-68
2021/06/04 10:01:04;;;;;;;2.75;1.35;;;11.60;78.20;;;;;;5003022;28;20037;-68
2021/06/04 10:04:04;;;;;;;1.60;1.02;;;11.60;77.80;;;;;;5005382;28;20521;-67
2021/06/04 10:06:42;;;;;;;1.88;1.10;;;11.60;78.70;;;;;;4984629;28;20025;-67
2021/06/04 10:09:22;;;;;;;2.45;1.10;;;11.60;78.30;;;;;;4985295;28;20046;-68
2021/06/04 10:12:05;;;;;;;3.80;1.00;;;11.60;79.10;;;;;;4985740;28;20133;-69
2021/06/04 10:17:39;;;;;;;2.50;1.20;;;12.20;75.20;;;;;;5004616;28;20042;-71
2021/06/04 10:20:31;;;;;;;2.20;1.13;;;12.50;73.20;;;;;;5006766;28;20053;-69
2021/06/04 10:23:07;;;;;;;2.05;1.38;;;12.70;72.10;;;;;;5005202;28;20346;-65
2021/06/04 10:25:59;;;;;;;2.97;1.00;;;12.70;72.50;;;;;;5006945;28;20653;-72
2021/06/04 10:28:38;;;;;;;5.35;1.48;;;12.70;71.80;;;;;;5004968;28;20042;-72
2021/06/04 10:31:36;;;;;;;3.30;1.13;;;12.80;72.30;;;;;;4988663;28;20029;-64
2021/06/04 10:34:29;;;;;;;2.72;1.52;;;12.60;72.90;;;;;;5006932;28;20116;-71
2021/06/04 10:36:58;;;;;;;2.63;2.05;;;12.50;73.50;;;;;;4986903;28;20034;-67
2021/06/04 10:39:34;;;;;;;1.40;1.10;;;12.50;73.00;;;;;;5005916;28;20076;-72
2021/06/04 10:42:38;;;;;;;1.73;1.20;;;12.60;71.80;;;;;;5005219;28;20026;-72
2021/06/04 10:45:29;;;;;;;1.38;0.85;;;12.70;71.50;;;;;;5005983;28;20026;-73
2021/06/04 10:48:38;;;;;;;1.77;0.70;;;12.70;71.90;;;;;;5004996;28;20883;-71
2021/06/04 10:51:16;;;;;;;1.70;0.80;;;12.70;71.70;;;;;;4986881;28;20041;-75
2021/06/04 10:53:55;;;;;;;1.88;0.80;;;12.70;71.70;;;;;;5006378;28;20057;-65
2021/06/04 10:56:37;;;;;;;1.27;0.90;;;12.70;72.10;;;;;;4987270;28;20029;-75
2021/06/04 10:59:20;;;;;;;1.42;0.90;;;12.70;72.50;;;;;;5005566;28;20171;-65
2021/06/04 11:02:18;;;;;;;3.88;0.98;;;12.70;72.10;;;;;;5005303;28;20029;-69
2021/06/04 11:04:54;;;;;;;0.90;0.63;;;12.70;71.80;;;;;;4988340;28;20088;-71
2021/06/04 11:07:28;;;;;;;0.88;0.68;;;12.70;71.10;;;;;;5004569;28;20052;-73
2021/06/04 11:10:16;;;;;;;0.60;0.60;;;12.90;71.00;;;;;;5003666;28;20034;-73
2021/06/04 11:13:02;;;;;;;2.25;0.98;;;12.80;70.90;;;;;;4987005;28;20026;-72
2021/06/04 11:15:51;;;;;;;0.82;0.77;;;12.70;71.50;;;;;;5005866;28;20029;-68
2021/06/04 11:18:38;;;;;;;0.95;0.70;;;12.70;71.80;;;;;;4656262;28;9999906;-67
2021/06/04 11:21:11;;;;;;;1.25;0.90;;;12.60;72.30;;;;;;5005414;28;20458;-67
2021/06/04 11:23:44;;;;;;;1.80;1.27;;;12.60;72.50;;;;;;4987019;28;20042;-68
2021/06/04 11:27:03;;;;;;;2.65;0.90;;;12.50;73.30;;;;;;5006189;28;20745;-71
2021/06/04 11:29:39;;;;;;;3.15;1.10;;;12.50;73.00;;;;;;4916099;29;20733;-67
2021/06/04 11:32:12;;;;;;;1.88;0.77;;;12.50;73.40;;;;;;4994900;28;21873;-67
2021/06/04 11:35:10;;;;;;;1.02;0.80;;;12.50;73.50;;;;;;5010612;28;21633;-74
2021/06/04 11:37:48;;;;;;;0.68;0.65;;;12.60;72.80;;;;;;5010607;28;20068;-75
2021/06/04 11:40:17;;;;;;;0.95;0.80;;;12.70;72.90;;;;;;4990153;28;20816;-68
2021/06/04 11:43:04;;;;;;;0.70;0.60;;;12.70;72.90;;;;;;5009667;28;20021;-68
2021/06/04 11:45:33;;;;;;;1.13;0.90;;;12.70;73.00;;;;;;4991042;28;20025;-67
2021/06/04 11:48:21;;;;;;;2.95;1.33;;;12.70;72.30;;;;;;5006335;28;20095;-67
2021/06/04 11:50:49;;;;;;;0.90;0.80;;;12.80;72.50;;;;;;5005845;28;20030;-72
2021/06/04 11:53:39;;;;;;;1.42;0.82;;;12.80;72.00;;;;;;4985198;28;20184;-74
2021/06/04 11:56:33;;;;;;;0.70;0.70;;;12.90;71.50;;;;;;5002910;28;20030;-67
2021/06/04 11:59:00;;;;;;;2.03;1.08;;;12.90;71.50;;;;;;4984718;28;20514;-73
2021/06/04 12:02:00;;;;;;;0.75;0.73;;;12.90;71.10;;;;;;5002648;28;20030;-67
2021/06/04 12:04:27;;;;;;;3.35;0.85;;;12.90;71.40;;;;;;4985401;28;20038;-71
2021/06/04 12:07:05;;;;;;;0.77;0.77;;;12.90;70.90;;;;;;5002893;28;20109;-74
2021/06/04 12:09:31;;;;;;;1.05;0.60;;;12.80;71.40;;;;;;5003835;28;20021;-71
2021/06/04 12:12:17;;;;;;;1.17;0.70;;;12.80;71.30;;;;;;5001647;28;20450;-72
2021/06/04 12:15:07;;;;;;;3.70;1.08;;;12.80;71.90;;;;;;4984063;28;20091;-75
2021/06/04 12:17:36;;;;;;;4.75;1.00;;;12.70;72.40;;;;;;4965203;28;20038;-77
2021/06/04 12:20:21;;;;;;;7.10;4.75;;;12.60;72.40;;;;;;5003475;28;20030;-69
2021/06/04 12:22:59;;;;;;;1.42;1.20;;;12.60;73.00;;;;;;4995092;28;20046;-69
2021/06/04 12:25:56;;;;;;;1.65;1.40;;;12.60;73.70;;;;;;5024909;28;20068;-69
2021/06/04 12:28:22;;;;;;;3.67;1.92;;;12.60;73.20;;;;;;5022028;28;20036;-68
2021/06/04 12:31:04;;;;;;;3.92;2.22;;;12.60;73.60;;;;;;5006420;28;20608;-68
2021/06/04 12:33:47;;;;;;;2.47;1.52;;;12.60;74.20;;;;;;5024717;28;20010;-73
2021/06/04 12:36:32;;;;;;;2.92;1.88;;;12.60;74.40;;;;;;5007123;28;20378;-68
2021/06/04 12:39:28;;;;;;;3.78;1.70;;;12.50;74.80;;;;;;5024346;28;20029;-74
2021/06/04 12:42:12;;;;;;;3.55;2.47;;;12.40;76.00;;;;;;5022161;28;20064;-70
2021/06/04 12:44:40;;;;;;;3.00;1.67;;;12.40;75.00;;;;;;5023087;28;20497;-75
2021/06/04 12:47:12;;;;;;;2.97;1.60;;;12.30;75.50;;;;;;5024160;28;20026;-77
2021/06/04 12:49:39;;;;;;;2.90;1.85;;;12.20;75.80;;;;;;5023651;28;20018;-68
2021/06/04 12:52:19;;;;;;;4.03;2.67;;;12.10;76.50;;;;;;5023991;28;20032;-75
2021/06/04 12:54:46;;;;;;;2.17;1.15;;;11.90;77.20;;;;;;5023598;28;20111;-68
2021/06/04 12:57:27;;;;;;;5.03;3.30;;;11.80;77.00;;;;;;5021892;28;20030;-68
2021/06/04 12:59:54;;;;;;;4.45;3.40;;;11.70;78.10;;;;;;5023477;28;20026;-69
2021/06/04 13:02:26;;;;;;;3.38;2.40;;;11.60;78.20;;;;;;5023234;28;20021;-75
2021/06/04 13:04:55;;;;;;;3.03;1.83;;;11.60;78.50;;;;;;5024418;28;20021;-76
2021/06/04 13:07:29;;;;;;;3.17;1.50;;;11.70;78.20;;;;;;5024624;28;20120;-69
2021/06/04 13:10:24;;;;;;;2.47;1.35;;;11.60;78.10;;;;;;5004531;28;20025;-76
2021/06/04 13:13:15;;;;;;;2.20;1.48;;;11.70;78.60;;;;;;5023879;28;20025;-68
2021/06/04 13:15:43;;;;;;;3.40;1.25;;;11.70;78.80;;;;;;5008720;28;20040;-76
2021/06/04 13:18:20;;;;;;;3.97;1.65;;;11.70;79.00;;;;;;5024144;28;20021;-68
2021/06/04 13:20:54;;;;;;;2.08;1.70;;;11.60;79.20;;;;;;5024264;28;20018;-76
2021/06/04 13:23:24;;;;;;;2.22;1.25;;;11.60;79.90;;;;;;5022835;28;20049;-75
2021/06/04 13:26:24;;;;;;;1.83;1.40;;;11.60;79.30;;;;;;5023781;28;20021;-75
2021/06/04 13:28:56;;;;;;;2.33;1.40;;;11.60;79.70;;;;;;5024280;28;20022;-76
2021/06/04 13:31:39;;;;;;;3.03;1.52;;;11.70;80.10;;;;;;5024033;28;20082;-75